Avon, Illinois
Current Conditions -  °F | °C
As of 4:35 AM on Saturday 25 Oct 2014 (Local Time) from KMQB Reporting Station
Moderate Fog Moderate Fog  
Wind Chill: 48°   Ceiling: 800
Heat Index: 48°   Visibility: 0.25mi
Dew Point: 48°   Wind: 3mph
Humidity: 100%   Direction: 270°W
Pressure: 29.99"   Gusts: NA
Location:  40.66°N, 90.43°W
Report Text: KMQB 250935Z AUTO 27003KT 1/4SM FG OVC008 09/09 A2999 RMK AO2 T00910091
Loading
Personal Weather Stations






























Interactive Weather Map New forecast layout! Learn more

10-Day Weather Forecast

Advertisements
Track Severe Weather on mobile